Mobridge Municipal Airport
KMBG : now visible

Airfield :











YOU CAN JOIN US ON...

 
LOGIN :

Register | Disclaimer

   EN    FR    IT 

 









Legend :    VFR   Marginal VFR   IFR   Intensive IFR   Very Intensive IFR
Visi :
Ceiling :
>= 8 km
>= 3000ft
5 to 8 km
1000 to 3000 ft
1500m to 5 km
500 to 1000 ft
800 to 1500m
200 to 500 ft
< 800m
< 200 ft
Symbols :   Thunderstorms  Fog  Heavy snow  Heavy precipitations  Wind > 20 kt







- Airport Elevation : 1716 ft


KMBG - Mobridge Municipal

CURRENT METAR :
  • 261452Z AUTO 21004KT 10SM FEW090 08/M05 A3011 RMK AO2 SLP205 T00781050 58003

EXPIRED METARs :
  • 261352Z AUTO 18004KT 10SM CLR 04/M03 A3012 RMK AO2 SLP209 T00391033
  • 261252Z AUTO 00000KT 10SM CLR 01/M04 A3012 RMK AO2 SLP208 T00111039

TAF KMBG
Valid from the 26 at 12:00 until the 27 at 12:00 UTC


261135Z 2612/2712 VRB04KT P6SM SCT090 BKN150
FM262000 13012KT P6SM BKN070
FM270600 09013KT 6SM RA BR OVC030
FM270800 06013KT 6SM -SNRA BR OVC019
FM271100 03013G19KT 5SM -SN BR OVC014
KZMP FIR / North America



MET'MAP, your aeronautical weather chart ! - Copyright ORBIFLY December 2007 - Disclaimer

ORBIFLY MET'MAP TEAM :

Programming & Development : Alexandra Zaïnal
Concept & Development : Baudouin d'Aumeries
Co-Development & Prog : Marc-Olivier Méhu
Technical & hardware support : Manuel Goepfert

Contact : metmap@orbifly.com




SOURCES & CREDITS :

   NOAA       Earth
Advisory